createdAt,value
2018-08-20T00:02:31.160Z,86.50
2018-08-20T00:05:01.228Z,87.36
2018-08-20T00:07:33.191Z,87.68
2018-08-20T00:10:02.513Z,88.24
2018-08-20T00:12:31.676Z,87.78
2018-08-20T00:15:00.950Z,88.21
2018-08-20T00:17:30.415Z,87.39
2018-08-20T00:19:59.621Z,87.63
2018-08-20T00:22:29.310Z,87.75
2018-08-20T00:25:07.953Z,88.15
2018-08-20T00:27:37.473Z,87.45
2018-08-20T00:30:08.269Z,87.67
2018-08-20T00:32:37.939Z,87.17
2018-08-20T00:35:07.547Z,87.20
2018-08-20T00:37:36.739Z,87.25
2018-08-20T00:40:06.064Z,87.14
2018-08-20T00:42:35.284Z,86.91
2018-08-20T00:45:06.149Z,86.96
2018-08-20T00:47:35.403Z,87.55
2018-08-20T00:50:05.242Z,87.38
2018-08-20T00:52:34.483Z,87.33
2018-08-20T00:55:03.812Z,87.70
2018-08-20T00:57:32.967Z,87.26
2018-08-20T01:00:02.119Z,87.31
2018-08-20T01:02:32.211Z,87.42
2018-08-20T01:05:02.113Z,88.12
2018-08-20T01:07:31.644Z,87.81
2018-08-20T01:10:00.957Z,87.89
2018-08-20T01:12:30.276Z,87.46
2018-08-20T01:14:59.530Z,87.70
2018-08-20T01:17:28.800Z,87.49
2018-08-20T01:19:57.964Z,86.85
2018-08-20T01:22:27.180Z,87.08
2018-08-20T01:24:56.498Z,87.08
2018-08-20T01:27:29.652Z,86.78
2018-08-20T01:29:58.895Z,87.29
2018-08-20T01:32:28.149Z,87.23
2018-08-20T01:35:11.286Z,86.61
2018-08-20T01:37:40.464Z,86.47
2018-08-20T01:40:09.687Z,86.91
2018-08-20T01:42:38.912Z,87.18
2018-08-20T01:45:08.311Z,87.06
2018-08-20T01:47:37.477Z,87.20
2018-08-20T01:50:06.769Z,87.46
2018-08-20T01:52:35.958Z,87.69
2018-08-20T01:55:05.997Z,87.54
2018-08-20T01:57:35.185Z,87.64
2018-08-20T02:00:05.457Z,87.48
2018-08-20T02:02:34.758Z,88.23
2018-08-20T02:05:04.226Z,88.05
2018-08-20T02:07:33.807Z,88.38
2018-08-20T02:10:03.125Z,88.33
2018-08-20T02:12:32.512Z,88.17
2018-08-20T02:15:03.754Z,88.42
2018-08-20T02:17:33.370Z,88.14
2018-08-20T02:20:02.653Z,88.66
2018-08-20T02:22:32.097Z,88.68
2018-08-20T02:25:01.567Z,88.12
2018-08-20T02:27:30.860Z,88.23
2018-08-20T02:30:00.097Z,88.61
2018-08-20T02:32:29.432Z,88.37
2018-08-20T02:34:58.653Z,88.22
2018-08-20T02:37:33.199Z,88.58
2018-08-20T02:40:03.134Z,88.84
2018-08-20T02:42:32.420Z,89.05
2018-08-20T02:45:01.640Z,88.52
2018-08-20T02:47:30.966Z,88.50
2018-08-20T02:50:00.207Z,88.97
2018-08-20T02:52:29.436Z,88.68
2018-08-20T02:54:58.658Z,88.07
2018-08-20T02:57:27.849Z,88.90
2018-08-20T02:59:57.457Z,88.94
2018-08-20T03:02:26.727Z,88.55
2018-08-20T03:04:55.997Z,88.55
2018-08-20T03:07:25.249Z,88.70
2018-08-20T03:09:54.434Z,88.94
2018-08-20T03:12:23.681Z,89.02
2018-08-20T03:14:52.942Z,89.26
2018-08-20T03:17:22.318Z,88.94
2018-08-20T03:19:51.516Z,89.18
2018-08-20T03:22:20.871Z,89.45
2018-08-20T03:24:50.133Z,89.03
2018-08-20T03:27:19.341Z,89.15
2018-08-20T03:29:48.588Z,89.07
2018-08-20T03:32:17.790Z,88.94
2018-08-20T03:34:47.238Z,88.84
2018-08-20T03:37:16.529Z,88.74
2018-08-20T03:39:46.388Z,88.98
2018-08-20T03:42:15.642Z,88.23
2018-08-20T03:44:44.856Z,88.46
2018-08-20T03:47:14.060Z,88.66
2018-08-20T03:49:43.293Z,88.83
2018-08-20T03:52:12.449Z,89.19
2018-08-20T03:54:41.664Z,89.24
2018-08-20T03:57:11.118Z,88.86
2018-08-20T03:59:40.377Z,89.84
2018-08-20T04:02:09.669Z,89.37
2018-08-20T04:04:38.927Z,89.57
2018-08-20T04:07:08.418Z,89.31
2018-08-20T04:09:37.607Z,89.83
2018-08-20T04:12:06.827Z,90.43
2018-08-20T04:14:36.012Z,90.41
2018-08-20T04:17:05.414Z,90.71
2018-08-20T04:19:34.657Z,90.33
2018-08-20T04:22:03.948Z,90.28
2018-08-20T04:24:33.130Z,90.00
2018-08-20T04:27:02.287Z,90.13
2018-08-20T04:29:31.471Z,89.87
2018-08-20T04:32:00.657Z,89.88
2018-08-20T04:34:29.904Z,89.89
2018-08-20T04:36:59.194Z,89.32
2018-08-20T04:39:28.466Z,89.52
2018-08-20T04:41:57.622Z,89.37
2018-08-20T04:44:26.847Z,88.68
2018-08-20T04:46:56.139Z,89.19
2018-08-20T04:49:25.318Z,89.21
2018-08-20T04:51:54.597Z,88.14
2018-08-20T04:54:23.837Z,87.64
2018-08-20T04:56:53.005Z,88.08
2018-08-20T04:59:22.195Z,87.65
2018-08-20T05:01:51.494Z,87.25
2018-08-20T05:04:21.336Z,87.03
2018-08-20T05:06:50.521Z,86.86
2018-08-20T05:09:19.906Z,86.44
2018-08-20T05:11:49.184Z,85.71
2018-08-20T05:14:19.026Z,85.09
2018-08-20T05:16:48.410Z,84.15
2018-08-20T05:19:17.653Z,83.50
2018-08-20T05:21:47.656Z,83.23
2018-08-20T05:24:17.863Z,82.50
2018-08-20T05:26:47.725Z,81.54
2018-08-20T05:29:17.602Z,82.04
2018-08-20T05:31:47.453Z,83.72
2018-08-20T05:34:17.241Z,81.73
2018-08-20T05:36:47.160Z,78.96
2018-08-20T05:39:17.032Z,79.10
2018-08-20T05:41:46.866Z,77.31
2018-08-20T05:44:16.690Z,75.96
2018-08-20T05:46:47.197Z,75.22
2018-08-20T05:49:17.004Z,75.27
2018-08-20T05:51:46.873Z,74.46
2018-08-20T05:54:16.745Z,74.63
2018-08-20T05:56:46.610Z,74.00
2018-08-20T05:59:16.687Z,73.93
2018-08-20T06:01:46.548Z,74.00
2018-08-20T06:04:16.361Z,74.21
2018-08-20T06:06:46.264Z,72.62
2018-08-20T06:09:16.149Z,72.12
2018-08-20T06:11:46.069Z,72.37
2018-08-20T06:14:16.011Z,71.12
2018-08-20T06:16:45.841Z,70.75
2018-08-20T06:19:15.740Z,70.80
2018-08-20T06:21:45.645Z,70.05
2018-08-20T06:24:15.493Z,69.39
2018-08-20T06:26:45.276Z,69.13
2018-08-20T06:29:15.255Z,68.47
2018-08-20T06:31:45.041Z,67.49
2018-08-20T06:34:14.910Z,66.91
2018-08-20T06:36:44.807Z,67.21
2018-08-20T06:39:14.602Z,67.22
2018-08-20T06:41:44.389Z,65.69
2018-08-20T06:44:14.284Z,66.27
2018-08-20T06:46:44.714Z,65.45
2018-08-20T06:49:14.521Z,64.41
2018-08-20T06:51:44.471Z,64.43
2018-08-20T06:54:14.277Z,64.09
2018-08-20T06:56:44.116Z,63.96
2018-08-20T06:59:14.041Z,63.52
2018-08-20T07:01:43.837Z,63.24
2018-08-20T07:04:13.634Z,62.36
2018-08-20T07:06:43.651Z,61.96
2018-08-20T07:09:13.425Z,60.95
2018-08-20T07:11:43.227Z,61.04
2018-08-20T07:14:13.167Z,60.42
2018-08-20T07:16:42.984Z,59.67
2018-08-20T07:19:13.425Z,59.37
2018-08-20T07:21:43.303Z,60.48
2018-08-20T07:24:13.160Z,59.74
2018-08-20T07:26:42.974Z,60.00
2018-08-20T07:29:12.971Z,57.91
2018-08-20T07:31:42.816Z,58.48
2018-08-20T07:34:12.706Z,58.07
2018-08-20T07:36:42.531Z,58.09
2018-08-20T07:39:12.426Z,57.47
2018-08-20T07:41:42.523Z,57.55
2018-08-20T07:44:12.501Z,58.66
2018-08-20T07:46:42.906Z,58.46
2018-08-20T07:49:18.549Z,57.16
2018-08-20T07:51:50.647Z,56.19
2018-08-20T07:54:21.176Z,56.43
2018-08-20T07:56:51.025Z,56.87
2018-08-20T07:59:20.785Z,56.12
2018-08-20T08:01:50.640Z,56.95
2018-08-20T08:04:20.517Z,56.06
2018-08-20T08:06:51.389Z,55.19
2018-08-20T08:09:21.242Z,54.60
2018-08-20T08:11:51.092Z,55.52
2018-08-20T08:14:21.221Z,56.17
2018-08-20T08:16:51.055Z,55.63
2018-08-20T08:19:20.830Z,54.41
2018-08-20T08:21:50.692Z,54.41
2018-08-20T08:24:20.640Z,53.24
2018-08-20T08:26:50.611Z,54.42
2018-08-20T08:29:20.637Z,53.69
2018-08-20T08:31:50.466Z,53.75
2018-08-20T08:34:20.449Z,52.65
2018-08-20T08:36:50.706Z,52.87
2018-08-20T08:39:20.653Z,53.63
2018-08-20T08:41:50.502Z,52.28
2018-08-20T08:44:22.149Z,52.78
2018-08-20T08:46:52.145Z,52.59
2018-08-20T08:49:22.245Z,51.06
2018-08-20T08:51:52.088Z,51.66
2018-08-20T08:54:21.943Z,51.24
2018-08-20T08:56:51.726Z,50.68
2018-08-20T08:59:21.621Z,50.96
2018-08-20T09:01:51.530Z,50.65
2018-08-20T09:04:21.390Z,51.84
2018-08-20T09:06:51.357Z,50.74
2018-08-20T09:09:21.256Z,50.75
2018-08-20T09:11:51.040Z,52.30
2018-08-20T09:14:20.910Z,50.34
2018-08-20T09:16:51.815Z,49.55
2018-08-20T09:19:21.629Z,48.44
2018-08-20T09:21:51.442Z,48.14
2018-08-20T09:24:21.265Z,50.19
2018-08-20T09:26:51.129Z,48.86
2018-08-20T09:29:21.010Z,48.59
2018-08-20T09:31:50.844Z,46.87
2018-08-20T09:34:20.681Z,47.66
2018-08-20T09:36:50.465Z,47.12
2018-08-20T09:39:20.364Z,47.00
2018-08-20T09:41:50.150Z,46.00
2018-08-20T09:44:20.169Z,46.98
2018-08-20T09:46:49.977Z,46.72
2018-08-20T09:49:19.946Z,47.29
2018-08-20T09:51:49.680Z,47.01
2018-08-20T09:54:19.500Z,46.09
2018-08-20T09:56:49.632Z,44.57
2018-08-20T09:59:19.423Z,44.45
2018-08-20T10:01:49.265Z,44.62
2018-08-20T10:04:19.098Z,44.07
2018-08-20T10:06:48.897Z,42.62
2018-08-20T10:09:18.994Z,45.55
2018-08-20T10:11:48.838Z,45.18
2018-08-20T10:14:18.640Z,45.35
2018-08-20T10:16:48.451Z,42.89
2018-08-20T10:19:18.442Z,43.25
2018-08-20T10:21:48.193Z,42.26
2018-08-20T10:24:18.535Z,43.05
2018-08-20T10:26:48.692Z,41.44
2018-08-20T10:29:18.629Z,41.69
2018-08-20T10:31:48.447Z,41.52
2018-08-20T10:34:18.237Z,41.34
2018-08-20T10:36:48.052Z,41.57
2018-08-20T10:39:17.862Z,41.31
2018-08-20T10:41:47.741Z,41.26
2018-08-20T10:44:17.529Z,41.71
2018-08-20T10:46:47.341Z,40.34
2018-08-20T10:49:17.157Z,40.15
2018-08-20T10:51:46.894Z,40.76
2018-08-20T10:54:17.548Z,40.44
2018-08-20T10:56:47.368Z,40.67
2018-08-20T10:59:17.194Z,41.21
2018-08-20T11:01:48.402Z,39.76
2018-08-20T11:04:18.138Z,38.62
2018-08-20T11:06:47.908Z,40.04
2018-08-20T11:09:17.777Z,40.35
2018-08-20T11:11:47.700Z,39.26
2018-08-20T11:14:17.451Z,37.78
2018-08-20T11:16:47.338Z,37.84
2018-08-20T11:19:17.105Z,37.48
2018-08-20T11:21:47.022Z,36.38
2018-08-20T11:24:16.987Z,37.64
2018-08-20T11:26:46.897Z,36.92
2018-08-20T11:29:16.740Z,35.45
2018-08-20T11:31:46.868Z,36.21
2018-08-20T11:34:16.878Z,36.28
2018-08-20T11:36:46.700Z,35.72
2018-08-20T11:39:16.627Z,36.39
2018-08-20T11:41:46.483Z,34.41
2018-08-20T11:44:16.313Z,34.93
2018-08-20T11:46:46.278Z,34.89
2018-08-20T11:49:16.232Z,34.81
2018-08-20T11:51:45.947Z,34.32
2018-08-20T11:54:16.524Z,34.75
2018-08-20T11:56:46.465Z,33.59
2018-08-20T11:59:16.205Z,31.84
2018-08-20T12:01:46.100Z,32.20
2018-08-20T12:04:15.886Z,32.82
2018-08-20T12:06:45.673Z,33.29
2018-08-20T12:09:15.533Z,31.46
2018-08-20T12:11:45.274Z,31.87
2018-08-20T12:14:15.178Z,32.25
2018-08-20T12:16:45.261Z,31.48
2018-08-20T12:19:15.263Z,32.60
2018-08-20T12:21:45.058Z,31.79
2018-08-20T12:24:15.091Z,32.26
2018-08-20T12:26:44.901Z,32.24
2018-08-20T12:29:14.677Z,30.97
2018-08-20T12:31:45.247Z,30.54
2018-08-20T12:34:15.120Z,30.47
2018-08-20T12:36:45.553Z,30.41
2018-08-20T12:39:15.358Z,30.34
2018-08-20T12:41:45.218Z,29.70
2018-08-20T12:44:15.132Z,31.44
2018-08-20T12:46:45.470Z,28.15
2018-08-20T12:49:15.433Z,28.73
2018-08-20T12:51:45.454Z,30.53
2018-08-20T12:54:15.258Z,29.40
2018-08-20T12:56:45.044Z,31.19
2018-08-20T12:59:14.893Z,29.08
2018-08-20T13:01:45.010Z,29.93
2018-08-20T13:04:14.839Z,30.23
2018-08-20T13:06:45.813Z,29.98
2018-08-20T13:09:15.622Z,29.67
2018-08-20T13:11:45.394Z,28.63
2018-08-20T13:14:15.425Z,28.38
2018-08-20T13:16:45.353Z,29.95
2018-08-20T13:19:15.137Z,28.53
2018-08-20T13:21:45.102Z,30.67
2018-08-20T13:24:14.997Z,29.41
2018-08-20T13:26:44.969Z,30.12
2018-08-20T13:29:14.935Z,30.76
2018-08-20T13:31:44.786Z,31.52
2018-08-20T13:34:14.545Z,29.67
2018-08-20T13:36:44.573Z,32.05
2018-08-20T13:39:14.542Z,30.55
2018-08-20T13:41:44.379Z,29.67
2018-08-20T13:44:14.534Z,30.85
2018-08-20T13:46:44.343Z,30.72
2018-08-20T13:49:14.158Z,31.82
2018-08-20T13:51:44.235Z,30.83
2018-08-20T13:54:14.095Z,31.67
2018-08-20T13:56:43.893Z,30.64
2018-08-20T13:59:13.758Z,32.34
2018-08-20T14:01:43.624Z,32.36
2018-08-20T14:04:13.413Z,31.41
2018-08-20T14:06:43.293Z,32.20
2018-08-20T14:09:13.093Z,32.68
2018-08-20T14:11:42.830Z,33.70
2018-08-20T14:14:12.694Z,35.16
2018-08-20T14:16:42.455Z,34.12
2018-08-20T14:19:12.792Z,35.09
2018-08-20T14:21:42.631Z,34.83
2018-08-20T14:24:12.858Z,37.12
2018-08-20T14:26:42.571Z,34.72
2018-08-20T14:29:13.183Z,35.62
2018-08-20T14:31:44.190Z,36.00
2018-08-20T14:34:14.021Z,35.32
2018-08-20T14:36:43.885Z,36.56
2018-08-20T14:39:13.627Z,34.71
2018-08-20T14:41:43.446Z,35.58
2018-08-20T14:44:13.606Z,36.34
2018-08-20T14:46:44.898Z,36.71
2018-08-20T14:49:14.973Z,35.93
2018-08-20T14:51:44.728Z,36.42
2018-08-20T14:54:14.487Z,36.75
2018-08-20T14:56:43.783Z,36.82
2018-08-20T14:59:12.943Z,37.33
2018-08-20T15:01:42.129Z,37.37
2018-08-20T15:04:11.370Z,36.83
2018-08-20T15:06:56.807Z,35.97
2018-08-20T15:09:27.330Z,36.20
2018-08-20T15:11:57.006Z,34.61
2018-08-20T15:14:26.159Z,35.03
2018-08-20T15:16:55.973Z,35.71
2018-08-20T15:19:25.161Z,34.89
2018-08-20T15:21:54.357Z,35.11
2018-08-20T15:24:23.598Z,35.54
2018-08-20T15:26:52.795Z,35.69
2018-08-20T15:29:23.068Z,35.42
2018-08-20T15:31:52.295Z,35.07
2018-08-20T15:34:21.434Z,33.49
2018-08-20T15:36:50.620Z,33.43
2018-08-20T15:39:19.906Z,36.11
2018-08-20T15:41:49.070Z,37.99
2018-08-20T15:44:18.828Z,38.42
2018-08-20T15:46:48.006Z,37.87
2018-08-20T15:49:17.198Z,39.19
2018-08-20T15:51:46.407Z,39.09
2018-08-20T15:54:15.637Z,39.54
2018-08-20T15:56:44.840Z,39.70
2018-08-20T15:59:14.032Z,39.70
2018-08-20T16:01:43.241Z,40.41
2018-08-20T16:04:13.392Z,40.08
2018-08-20T16:06:42.672Z,40.36
2018-08-20T16:09:11.833Z,40.57
2018-08-20T16:11:44.402Z,40.42
2018-08-20T16:14:13.648Z,40.78
2018-08-20T16:16:42.795Z,40.93
2018-08-20T16:19:12.196Z,41.29
2018-08-20T16:21:41.402Z,40.88
2018-08-20T16:24:10.684Z,41.06
2018-08-20T16:26:43.159Z,40.90
2018-08-20T16:29:12.300Z,40.34
2018-08-20T16:31:41.669Z,39.59
2018-08-20T16:34:10.986Z,40.30
2018-08-20T16:36:41.155Z,40.06
2018-08-20T16:39:12.701Z,40.67
2018-08-20T16:41:41.832Z,42.17
2018-08-20T16:44:11.440Z,41.09
2018-08-20T16:46:40.644Z,41.53
2018-08-20T16:49:11.532Z,40.85
2018-08-20T16:51:40.714Z,41.12
2018-08-20T16:54:09.979Z,40.70
2018-08-20T16:56:39.190Z,41.31
2018-08-20T16:59:08.489Z,40.21
2018-08-20T17:01:37.681Z,41.22
2018-08-20T17:04:20.840Z,41.78
2018-08-20T17:06:50.495Z,40.38
2018-08-20T17:09:19.639Z,40.81
2018-08-20T17:11:48.844Z,40.77
2018-08-20T17:14:18.014Z,40.80
2018-08-20T17:16:47.246Z,40.16
2018-08-20T17:19:16.428Z,40.92
2018-08-20T17:21:45.707Z,40.95
2018-08-20T17:24:30.034Z,40.64
2018-08-20T17:27:01.550Z,41.26
2018-08-20T17:29:30.831Z,40.41
2018-08-20T17:32:02.108Z,40.76
2018-08-20T17:34:32.163Z,40.48
2018-08-20T17:37:01.380Z,40.90
2018-08-20T17:39:30.575Z,41.04
2018-08-20T17:42:00.045Z,41.99
2018-08-20T17:44:30.197Z,43.32
2018-08-20T17:46:59.481Z,43.59
2018-08-20T17:49:30.091Z,44.63
2018-08-20T17:51:59.412Z,44.21
2018-08-20T17:54:29.867Z,45.20
2018-08-20T17:56:59.362Z,44.59
2018-08-20T17:59:29.313Z,45.49
2018-08-20T18:01:58.533Z,46.96
2018-08-20T18:04:28.328Z,47.79
2018-08-20T18:06:57.560Z,49.84
2018-08-20T18:09:27.641Z,49.43
2018-08-20T18:11:56.820Z,50.96
2018-08-20T18:14:26.781Z,51.26
2018-08-20T18:16:55.997Z,51.78
2018-08-20T18:19:25.192Z,52.47
2018-08-20T18:21:54.418Z,53.17
2018-08-20T18:24:23.617Z,53.01
2018-08-20T18:26:54.972Z,53.74
2018-08-20T18:29:24.192Z,53.66
2018-08-20T18:31:53.880Z,53.70
2018-08-20T18:34:23.172Z,54.54
2018-08-20T18:36:52.439Z,55.00
2018-08-20T18:39:22.011Z,56.04
2018-08-20T18:42:06.672Z,55.37
2018-08-20T18:44:36.581Z,56.19
2018-08-20T18:47:07.553Z,56.29
2018-08-20T18:49:48.674Z,56.65
2018-08-20T18:52:18.101Z,56.82
2018-08-20T18:54:50.599Z,56.20
2018-08-20T18:57:23.866Z,56.76
2018-08-20T18:59:53.699Z,57.37
2018-08-20T19:02:32.993Z,57.38
2018-08-20T19:05:02.831Z,57.73
2018-08-20T19:07:32.296Z,58.53
2018-08-20T19:10:02.365Z,57.78
2018-08-20T19:12:31.560Z,58.38
2018-08-20T19:15:05.588Z,58.84
2018-08-20T19:17:34.890Z,59.21
2018-08-20T19:20:04.176Z,59.39
2018-08-20T19:22:33.347Z,59.49
2018-08-20T19:25:02.604Z,59.86
2018-08-20T19:27:32.558Z,60.89
2018-08-20T19:30:14.351Z,61.22
2018-08-20T19:32:47.549Z,60.75
2018-08-20T19:35:17.227Z,61.62
2018-08-20T19:37:48.451Z,61.75
2018-08-20T19:40:17.753Z,63.08
2018-08-20T19:42:47.398Z,63.00
2018-08-20T19:45:16.577Z,63.47
2018-08-20T19:47:46.123Z,62.95
2018-08-20T19:50:15.487Z,63.86
2018-08-20T19:52:46.288Z,63.93
2018-08-20T19:55:15.473Z,64.22
2018-08-20T19:57:44.837Z,64.47
2018-08-20T20:00:14.526Z,63.62
2018-08-20T20:02:44.654Z,64.12
2018-08-20T20:05:15.467Z,64.46
2018-08-20T20:07:56.420Z,64.78
2018-08-20T20:10:26.790Z,65.12
2018-08-20T20:12:56.422Z,64.83
2018-08-20T20:15:26.131Z,64.72
2018-08-20T20:17:56.265Z,65.43
2018-08-20T20:20:25.900Z,65.00
2018-08-20T20:22:56.292Z,65.52
2018-08-20T20:25:25.777Z,64.98
2018-08-20T20:27:54.939Z,65.81
2018-08-20T20:30:24.075Z,65.76
2018-08-20T20:32:53.889Z,65.78
2018-08-20T20:35:23.112Z,66.59
2018-08-20T20:37:52.300Z,66.23
2018-08-20T20:40:21.509Z,66.41
2018-08-20T20:42:50.737Z,66.45
2018-08-20T20:45:20.842Z,66.60
2018-08-20T20:47:50.707Z,66.04
2018-08-20T20:50:19.920Z,66.41
2018-08-20T20:52:49.121Z,66.60
2018-08-20T20:55:18.330Z,67.12
2018-08-20T20:57:47.507Z,66.92
2018-08-20T21:00:17.727Z,67.19
2018-08-20T21:02:46.965Z,66.83
2018-08-20T21:05:16.213Z,66.86
2018-08-20T21:07:45.537Z,66.56
2018-08-20T21:10:14.790Z,67.22
2018-08-20T21:12:44.026Z,67.01
2018-08-20T21:15:13.268Z,66.95
2018-08-20T21:17:42.919Z,66.83
2018-08-20T21:20:12.356Z,67.56
2018-08-20T21:22:41.872Z,67.18
2018-08-20T21:25:11.554Z,67.28
2018-08-20T21:27:40.757Z,67.32
2018-08-20T21:30:09.977Z,67.10
2018-08-20T21:32:39.146Z,67.33
2018-08-20T21:35:08.447Z,67.51
2018-08-20T21:37:37.672Z,67.58
2018-08-20T21:40:06.940Z,67.49
2018-08-20T21:42:42.403Z,67.69
2018-08-20T21:45:12.018Z,67.50
2018-08-20T21:47:41.231Z,67.49
2018-08-20T21:50:10.483Z,67.54
2018-08-20T21:52:39.870Z,67.79
2018-08-20T21:55:09.229Z,67.54
2018-08-20T21:57:42.305Z,67.57
2018-08-20T22:00:14.717Z,67.76
2018-08-20T22:02:48.856Z,67.69
2018-08-20T22:05:18.063Z,67.93
2018-08-20T22:07:47.472Z,67.74
2018-08-20T22:10:17.089Z,68.00
2018-08-20T22:12:46.276Z,68.65
2018-08-20T22:15:17.181Z,68.56
2018-08-20T22:17:46.909Z,68.57
2018-08-20T22:20:16.823Z,69.35
2018-08-20T22:22:46.696Z,69.07
2018-08-20T22:25:20.120Z,70.08
2018-08-20T22:27:55.716Z,69.60
2018-08-20T22:30:25.653Z,69.69
2018-08-20T22:32:55.077Z,69.55
2018-08-20T22:35:27.221Z,70.31
2018-08-20T22:37:58.475Z,70.32
2018-08-20T22:40:27.749Z,70.31
2018-08-20T22:42:58.828Z,70.09
2018-08-20T22:45:28.073Z,70.23
2018-08-20T22:47:57.301Z,70.14
2018-08-20T22:50:26.513Z,70.43
2018-08-20T22:52:56.386Z,70.42
2018-08-20T22:55:25.822Z,70.98
2018-08-20T22:58:06.238Z,71.84
2018-08-20T23:00:35.600Z,71.96
2018-08-20T23:03:05.596Z,72.10
2018-08-20T23:05:34.828Z,72.34
2018-08-20T23:08:14.129Z,72.18
2018-08-20T23:10:44.012Z,72.32
2018-08-20T23:13:13.232Z,72.98
2018-08-20T23:15:42.543Z,72.75
2018-08-20T23:18:11.787Z,73.13
2018-08-20T23:20:41.050Z,73.46
2018-08-20T23:23:10.252Z,73.42
2018-08-20T23:25:39.454Z,73.22
2018-08-20T23:28:09.423Z,73.97
2018-08-20T23:30:40.247Z,74.14
2018-08-20T23:33:09.910Z,73.61
2018-08-20T23:35:39.095Z,73.81
2018-08-20T23:38:08.323Z,73.79
2018-08-20T23:40:37.488Z,74.56
2018-08-20T23:43:07.269Z,74.75
2018-08-20T23:45:36.442Z,74.41
2018-08-20T23:48:05.653Z,75.07
2018-08-20T23:50:34.900Z,75.47
2018-08-20T23:53:04.111Z,75.67
2018-08-20T23:55:33.613Z,75.06
2018-08-20T23:58:02.792Z,74.90
